createdAt,value
2018-06-01T00:02:05.162Z,79.20
2018-06-01T00:04:33.217Z,79.70
2018-06-01T00:07:01.300Z,80.00
2018-06-01T00:09:29.348Z,80.20
2018-06-01T00:11:57.382Z,80.50
2018-06-01T00:14:25.469Z,80.60
2018-06-01T00:16:53.514Z,80.40
2018-06-01T00:19:22.365Z,80.80
2018-06-01T00:21:50.439Z,80.70
2018-06-01T00:24:18.490Z,80.80
2018-06-01T00:26:46.556Z,80.90
2018-06-01T00:29:14.614Z,81.00
2018-06-01T00:31:42.681Z,81.20
2018-06-01T00:34:10.763Z,81.40
2018-06-01T00:36:38.849Z,81.60
2018-06-01T00:39:06.900Z,82.00
2018-06-01T00:41:34.961Z,82.10
2018-06-01T00:44:03.770Z,82.70
2018-06-01T00:46:31.843Z,82.40
2018-06-01T00:48:59.909Z,83.00
2018-06-01T00:51:27.964Z,83.30
2018-06-01T00:53:56.042Z,83.30
2018-06-01T00:56:24.091Z,83.60
2018-06-01T00:58:52.910Z,83.60
2018-06-01T01:01:20.995Z,83.50
2018-06-01T01:03:49.075Z,83.80
2018-06-01T01:06:18.006Z,83.80
2018-06-01T01:08:46.075Z,83.90
2018-06-01T01:11:14.121Z,83.30
2018-06-01T01:13:42.793Z,84.00
2018-06-01T01:16:10.870Z,83.60
2018-06-01T01:18:38.943Z,84.70
2018-06-01T01:21:06.994Z,83.70
2018-06-01T01:23:35.055Z,84.30
2018-06-01T01:26:03.117Z,84.80
2018-06-01T01:28:31.211Z,84.40
2018-06-01T01:30:59.283Z,84.40
2018-06-01T01:33:27.337Z,84.20
2018-06-01T01:35:55.414Z,84.50
2018-06-01T01:38:23.486Z,84.90
2018-06-01T01:40:58.457Z,84.20
2018-06-01T01:43:26.545Z,84.70
2018-06-01T01:45:54.634Z,84.40
2018-06-01T01:48:22.644Z,84.70
2018-06-01T01:50:50.702Z,84.60
2018-06-01T01:53:18.755Z,84.70
2018-06-01T01:55:47.659Z,85.40
2018-06-01T01:58:15.692Z,84.90
2018-06-01T02:00:43.732Z,84.70
2018-06-01T02:03:11.822Z,85.20
2018-06-01T02:05:39.881Z,84.60
2018-06-01T02:08:08.024Z,84.90
2018-06-01T02:10:36.048Z,84.80
2018-06-01T02:13:04.098Z,85.10
2018-06-01T02:15:32.162Z,85.00
2018-06-01T02:18:00.230Z,85.20
2018-06-01T02:20:28.298Z,85.20
2018-06-01T02:22:56.365Z,85.20
2018-06-01T02:25:24.437Z,85.80
2018-06-01T02:27:52.493Z,85.90
2018-06-01T02:30:21.123Z,85.40
2018-06-01T02:32:49.202Z,86.00
2018-06-01T02:35:17.262Z,85.30
2018-06-01T02:37:45.314Z,85.30
2018-06-01T02:40:13.368Z,85.30
2018-06-01T02:42:41.444Z,85.80
2018-06-01T02:45:09.503Z,85.70
2018-06-01T02:47:37.572Z,85.80
2018-06-01T02:50:05.619Z,85.40
2018-06-01T02:52:34.546Z,86.10
2018-06-01T02:55:02.592Z,85.80
2018-06-01T02:57:31.411Z,86.10
2018-06-01T02:59:59.513Z,85.60
2018-06-01T03:02:27.582Z,85.80
2018-06-01T03:04:55.638Z,85.20
2018-06-01T03:07:23.701Z,85.70
2018-06-01T03:09:51.757Z,86.00
2018-06-01T03:12:19.829Z,86.50
2018-06-01T03:14:47.905Z,86.70
2018-06-01T03:17:15.987Z,87.20
2018-06-01T03:19:44.055Z,87.20
2018-06-01T03:22:12.102Z,87.30
2018-06-01T03:24:40.939Z,87.50
2018-06-01T03:27:08.985Z,87.50
2018-06-01T03:29:37.084Z,87.40
2018-06-01T03:32:05.147Z,87.50
2018-06-01T03:34:33.205Z,87.50
2018-06-01T03:37:01.356Z,88.10
2018-06-01T03:39:29.365Z,88.10
2018-06-01T03:41:57.418Z,88.60
2018-06-01T03:44:25.492Z,88.20
2018-06-01T03:46:53.549Z,88.60
2018-06-01T03:49:21.627Z,88.40
2018-06-01T03:51:49.680Z,88.90
2018-06-01T03:54:18.580Z,89.10
2018-06-01T03:56:46.588Z,88.60
2018-06-01T03:59:14.669Z,88.60
2018-06-01T04:01:42.721Z,89.10
2018-06-01T04:04:10.867Z,89.30
2018-06-01T04:06:38.893Z,89.30
2018-06-01T04:09:06.966Z,90.00
2018-06-01T04:11:35.577Z,89.00
2018-06-01T04:14:04.468Z,88.90
2018-06-01T04:16:33.307Z,89.50
2018-06-01T04:19:01.367Z,88.80
2018-06-01T04:21:29.429Z,88.60
2018-06-01T04:23:57.477Z,89.10
2018-06-01T04:26:26.311Z,88.70
2018-06-01T04:28:54.370Z,88.10
2018-06-01T04:31:22.455Z,88.30
2018-06-01T04:33:50.497Z,87.80
2018-06-01T04:36:18.578Z,87.50
2018-06-01T04:38:46.647Z,87.20
2018-06-01T04:41:14.773Z,86.00
2018-06-01T04:43:42.840Z,86.40
2018-06-01T04:46:10.892Z,85.40
2018-06-01T04:48:38.982Z,86.50
2018-06-01T04:51:07.034Z,85.10
2018-06-01T04:53:35.166Z,85.60
2018-06-01T04:56:03.255Z,84.60
2018-06-01T04:58:31.237Z,84.40
2018-06-01T05:01:00.071Z,84.80
2018-06-01T05:03:28.100Z,84.10
2018-06-01T05:05:56.574Z,83.90
2018-06-01T05:08:24.648Z,83.70
2018-06-01T05:10:52.698Z,83.60
2018-06-01T05:13:21.568Z,83.40
2018-06-01T05:15:51.191Z,83.20
2018-06-01T05:18:19.196Z,83.30
2018-06-01T05:20:47.279Z,82.80
2018-06-01T05:23:15.349Z,82.50
2018-06-01T05:25:43.445Z,83.00
2018-06-01T05:28:11.477Z,82.40
2018-06-01T05:30:39.558Z,80.10
2018-06-01T05:33:07.616Z,76.50
2018-06-01T05:35:35.663Z,72.50
2018-06-01T05:38:03.771Z,69.10
2018-06-01T05:40:31.826Z,66.10
2018-06-01T05:42:59.883Z,63.70
2018-06-01T05:45:27.954Z,60.00
2018-06-01T05:47:56.045Z,58.20
2018-06-01T05:50:24.099Z,52.70
2018-06-01T05:52:52.205Z,53.00
2018-06-01T05:55:20.267Z,51.10
2018-06-01T05:57:48.385Z,49.50
2018-06-01T06:00:16.436Z,48.70
2018-06-01T06:02:44.532Z,47.40
2018-06-01T06:05:13.386Z,44.60
2018-06-01T06:07:41.465Z,44.50
2018-06-01T06:10:09.535Z,45.30
2018-06-01T06:12:37.579Z,46.60
2018-06-01T06:15:05.660Z,49.40
2018-06-01T06:17:33.731Z,50.20
2018-06-01T06:22:36.319Z,50.80
2018-06-01T06:25:04.401Z,50.40
2018-06-01T06:27:32.471Z,48.90
2018-06-01T06:30:00.511Z,47.80
2018-06-01T06:32:28.588Z,47.50
2018-06-01T06:34:56.719Z,46.50
2018-06-01T06:37:24.761Z,47.00
2018-06-01T06:39:52.823Z,47.30
2018-06-01T06:42:20.890Z,47.90
2018-06-01T06:44:48.974Z,46.10
2018-06-01T06:47:17.133Z,41.90
2018-06-01T06:49:45.302Z,42.40
2018-06-01T06:52:13.378Z,40.40
2018-06-01T06:54:41.461Z,38.50
2018-06-01T06:57:09.592Z,37.50
2018-06-01T06:59:37.655Z,36.00
2018-06-01T07:02:05.747Z,33.10
2018-06-01T07:04:33.831Z,32.20
2018-06-01T07:07:01.908Z,32.60
2018-06-01T07:09:29.966Z,30.90
2018-06-01T07:11:58.013Z,32.70
2018-06-01T07:14:26.865Z,35.00
2018-06-01T07:16:54.926Z,34.40
2018-06-01T07:19:23.059Z,37.30
2018-06-01T07:21:51.090Z,39.70
2018-06-01T07:24:19.152Z,42.30
2018-06-01T07:26:47.222Z,43.10
2018-06-01T07:29:15.289Z,45.30
2018-06-01T07:31:43.348Z,46.10
2018-06-01T07:34:11.457Z,48.20
2018-06-01T07:36:39.502Z,48.90
2018-06-01T07:39:07.600Z,49.90
2018-06-01T07:41:35.702Z,51.30
2018-06-01T07:44:04.595Z,53.80
2018-06-01T07:46:33.777Z,54.40
2018-06-01T07:49:02.271Z,56.00
2018-06-01T07:51:30.743Z,57.20
2018-06-01T07:53:59.564Z,58.70
2018-06-01T07:56:27.603Z,59.30
2018-06-01T07:58:56.440Z,60.00
2018-06-01T08:01:24.525Z,59.50
2018-06-01T08:03:52.620Z,59.80
2018-06-01T08:06:20.707Z,60.40
2018-06-01T08:08:49.542Z,61.30
2018-06-01T08:11:17.594Z,60.60
2018-06-01T08:13:45.682Z,62.10
2018-06-01T08:16:13.759Z,61.70
2018-06-01T08:18:41.812Z,62.20
2018-06-01T08:21:09.894Z,62.50
2018-06-01T08:23:37.973Z,63.10
2018-06-01T08:26:06.039Z,64.10
2018-06-01T08:31:09.750Z,66.20
2018-06-01T08:33:37.825Z,66.20
2018-06-01T08:36:05.930Z,66.00
2018-06-01T08:38:34.046Z,66.20
2018-06-01T08:41:03.704Z,66.00
2018-06-01T08:43:31.766Z,67.00
2018-06-01T08:45:59.884Z,67.10
2018-06-01T08:48:27.957Z,66.60
2018-06-01T08:50:57.512Z,66.80
2018-06-01T08:53:25.629Z,67.40
2018-06-01T08:55:53.662Z,68.00
2018-06-01T08:58:21.763Z,65.90
2018-06-01T09:00:49.847Z,65.80
2018-06-01T09:03:17.922Z,64.60
2018-06-01T09:05:45.970Z,60.50
2018-06-01T09:08:14.036Z,52.40
2018-06-01T09:10:42.114Z,46.60
2018-06-01T09:13:10.175Z,44.50
2018-06-01T09:15:38.238Z,42.80
2018-06-01T09:18:06.330Z,43.00
2018-06-01T09:20:34.378Z,43.50
2018-06-01T09:23:02.512Z,42.30
2018-06-01T09:25:30.531Z,44.70
2018-06-01T09:27:58.601Z,45.10
2018-06-01T09:30:26.671Z,45.30
2018-06-01T09:32:54.707Z,43.00
2018-06-01T09:35:22.873Z,42.40
2018-06-01T09:37:51.318Z,38.50
2018-06-01T09:40:20.393Z,38.50
2018-06-01T09:42:48.457Z,37.90
2018-06-01T09:45:16.593Z,37.50
2018-06-01T09:47:45.839Z,39.10
2018-06-01T09:50:14.662Z,38.30
2018-06-01T09:52:42.733Z,38.60
2018-06-01T09:55:10.812Z,37.50
2018-06-01T09:57:39.678Z,32.00
2018-06-01T10:00:07.716Z,31.90
2018-06-01T10:02:35.775Z,34.20
2018-06-01T10:05:03.838Z,36.30
2018-06-01T10:07:31.900Z,38.40
2018-06-01T10:10:05.722Z,39.80
2018-06-01T10:12:33.802Z,42.70
2018-06-01T10:15:01.875Z,43.90
2018-06-01T10:17:29.950Z,45.00
2018-06-01T10:19:58.011Z,45.80
2018-06-01T10:22:31.207Z,43.70
2018-06-01T10:25:00.157Z,42.80
2018-06-01T10:27:28.763Z,43.10
2018-06-01T10:55:01.724Z,42.40
2018-06-01T11:00:44.884Z,44.60
2018-06-01T11:03:43.729Z,45.70
2018-06-01T11:10:11.203Z,49.30
2018-06-01T11:15:39.282Z,51.80
2018-06-01T11:18:07.366Z,53.70
2018-06-01T11:20:35.443Z,55.30
2018-06-01T11:23:43.949Z,56.70
2018-06-01T11:26:27.918Z,57.10
2018-06-01T11:28:57.503Z,57.60
2018-06-01T11:31:25.614Z,58.40
2018-06-01T11:33:58.039Z,59.60
2018-06-01T11:36:28.957Z,60.90
2018-06-01T11:42:36.715Z,63.70
2018-06-01T11:45:26.567Z,65.80
2018-06-01T11:48:17.947Z,66.10
2018-06-01T12:08:08.573Z,66.90
2018-06-01T12:10:36.637Z,66.70
2018-06-01T12:13:10.568Z,67.80
2018-06-01T12:15:52.519Z,68.30
2018-06-01T12:25:24.763Z,70.60
2018-06-01T12:34:38.724Z,69.50
2018-06-01T12:37:16.861Z,70.00
2018-06-01T12:39:45.731Z,73.10
2018-06-01T12:42:45.088Z,72.00
